Time;durP1;ratioP1;P1;durP2;ratioP2;P2;SDS_P1;SDS_P2;PMS_P1;PMS_P2;Temp;Humidity;BMP_temperature;BMP_pressure;BME280_temperature;BME280_humidity;BME280_pressure;Samples;Min_cycle;Max_cycle;Signal;HPM_P1;HPM_P2
2022/05/26 06:04:14;;;;;;;6.73;4.63;;;14.90;99.90;;;;;;1431293;23;20501;-77
2022/05/26 06:09:31;;;;;;;6.67;4.73;;;15.00;99.90;;;;;;4964349;28;20794;-69
2022/05/26 06:12:22;;;;;;;7.50;4.87;;;15.00;99.90;;;;;;4974897;28;20553;-69
2022/05/26 06:15:15;;;;;;;7.80;4.97;;;15.00;99.90;;;;;;4975934;28;20819;-70
2022/05/26 06:18:06;;;;;;;7.87;4.67;;;15.10;99.90;;;;;;4955517;28;20483;-70
2022/05/26 06:21:02;;;;;;;8.17;4.70;;;15.10;99.90;;;;;;4955761;28;20471;-69
2022/05/26 06:23:58;;;;;;;3.73;3.30;;;15.20;99.90;;;;;;4958820;28;21037;-69
2022/05/26 06:26:52;;;;;;;7.40;3.67;;;15.20;99.90;;;;;;4961255;28;20486;-69
2022/05/26 06:29:50;;;;;;;11.03;4.60;;;15.30;99.90;;;;;;4956556;28;20602;-69
2022/05/26 06:39:09;;;;;;;4.87;3.57;;;15.30;99.90;;;;;;4961999;28;20455;-68
2022/05/26 06:42:07;;;;;;;6.80;3.77;;;15.40;99.90;;;;;;4955817;28;20474;-69
2022/05/26 06:44:57;;;;;;;5.70;3.30;;;15.40;99.90;;;;;;4953380;28;21016;-69
2022/05/26 06:47:53;;;;;;;4.57;3.60;;;15.40;99.90;;;;;;4947830;28;21012;-70
2022/05/26 06:50:42;;;;;;;5.30;3.47;;;15.40;99.90;;;;;;4945639;28;20494;-69
2022/05/26 06:53:38;;;;;;;4.57;3.30;;;15.40;99.90;;;;;;4948825;28;21076;-76
2022/05/26 06:56:27;;;;;;;5.57;3.33;;;15.40;99.90;;;;;;4944395;28;20561;-71
2022/05/26 06:59:19;;;;;;;8.20;3.90;;;15.40;99.90;;;;;;4951847;28;20455;-70
2022/05/26 07:02:13;;;;;;;6.03;4.30;;;15.60;99.90;;;;;;4949854;28;20479;-70
2022/05/26 07:05:05;;;;;;;7.57;3.77;;;15.60;99.90;;;;;;4952781;28;20482;-68
2022/05/26 07:07:54;;;;;;;7.10;4.13;;;15.60;99.90;;;;;;4958194;28;20559;-69
2022/05/26 07:10:42;;;;;;;5.33;3.40;;;15.60;99.90;;;;;;4957454;28;20462;-69
2022/05/26 07:13:34;;;;;;;4.23;3.00;;;15.70;99.90;;;;;;4956141;28;20558;-69
2022/05/26 07:16:22;;;;;;;4.63;2.93;;;15.70;99.90;;;;;;4958901;28;20471;-69
2022/05/26 07:19:10;;;;;;;6.67;2.93;;;15.80;99.90;;;;;;4958562;28;20512;-71
2022/05/26 07:21:58;;;;;;;5.40;2.30;;;15.80;99.90;;;;;;4958278;28;21001;-69
2022/05/26 07:24:51;;;;;;;3.23;1.87;;;15.80;99.90;;;;;;4958489;28;20573;-70
2022/05/26 07:27:42;;;;;;;2.60;1.70;;;15.80;99.90;;;;;;4961128;28;20474;-68
2022/05/26 07:30:34;;;;;;;7.60;2.37;;;15.80;99.90;;;;;;4960295;28;21036;-69
2022/05/26 07:33:24;;;;;;;4.37;1.77;;;15.90;99.90;;;;;;4964078;28;20545;-69
2022/05/26 07:42:32;;;;;;;4.00;1.50;;;15.90;99.90;;;;;;4962077;28;21045;-69
2022/05/26 07:45:20;;;;;;;4.07;1.67;;;15.90;99.90;;;;;;4963707;28;20540;-68
2022/05/26 07:48:12;;;;;;;1.87;1.20;;;15.90;99.90;;;;;;4961985;28;20601;-69
2022/05/26 07:51:00;;;;;;;3.50;1.37;;;16.00;99.90;;;;;;4963646;28;20539;-69
2022/05/26 07:53:53;;;;;;;4.47;2.07;;;16.00;99.90;;;;;;4959118;28;20467;-69
2022/05/26 07:56:42;;;;;;;3.30;1.10;;;16.00;99.90;;;;;;4962583;28;21065;-69
2022/05/26 07:59:46;;;;;;;4.40;1.30;;;15.90;99.90;;;;;;4962179;28;21053;-69
2022/05/26 08:02:34;;;;;;;4.27;1.27;;;15.90;99.90;;;;;;4959953;28;21024;-69
2022/05/26 08:05:31;;;;;;;2.73;1.50;;;16.00;99.90;;;;;;4961781;28;20505;-69
2022/05/26 08:08:22;;;;;;;2.40;1.50;;;16.00;99.90;;;;;;4961595;28;20565;-69
2022/05/26 08:11:10;;;;;;;3.37;1.33;;;16.00;99.90;;;;;;4959749;28;20549;-70
2022/05/26 08:14:01;;;;;;;2.80;1.13;;;16.10;99.90;;;;;;4960036;28;20471;-70
2022/05/26 08:16:50;;;;;;;3.27;1.30;;;16.10;99.90;;;;;;4961715;28;20626;-71
2022/05/26 08:19:42;;;;;;;3.10;1.00;;;16.10;99.90;;;;;;4961284;28;20477;-70
2022/05/26 08:22:32;;;;;;;2.07;1.03;;;16.20;99.90;;;;;;4959564;28;20517;-69
2022/05/26 08:25:24;;;;;;;3.00;1.07;;;16.20;99.90;;;;;;4962500;28;20489;-70
2022/05/26 08:28:13;;;;;;;2.77;0.93;;;16.30;99.90;;;;;;4956476;28;20461;-71
2022/05/26 08:31:08;;;;;;;2.97;1.53;;;16.30;99.90;;;;;;4958078;28;20447;-71
2022/05/26 08:33:58;;;;;;;2.40;1.00;;;16.30;99.90;;;;;;4959509;28;20573;-70
2022/05/26 08:36:52;;;;;;;1.70;1.03;;;16.40;99.90;;;;;;4962289;28;20471;-70
2022/05/26 08:39:44;;;;;;;2.53;1.00;;;16.50;99.90;;;;;;4960298;28;20560;-70
2022/05/26 08:42:40;;;;;;;1.20;0.70;;;16.50;99.90;;;;;;4955649;28;20494;-71
2022/05/26 08:45:34;;;;;;;2.30;1.30;;;16.50;99.90;;;;;;4960094;28;20604;-69
2022/05/26 08:48:42;;;;;;;3.43;1.20;;;16.60;99.90;;;;;;4961496;28;20963;-70
2022/05/26 08:51:44;;;;;;;3.30;1.03;;;16.50;99.90;;;;;;4960508;28;20561;-69
2022/05/26 08:54:38;;;;;;;7.30;1.43;;;16.40;99.90;;;;;;4959777;28;20617;-69
2022/05/26 08:57:34;;;;;;;2.50;1.30;;;16.40;99.90;;;;;;4959900;28;20493;-68
2022/05/26 09:00:31;;;;;;;2.60;1.10;;;16.50;99.90;;;;;;4960525;28;20550;-70
2022/05/26 09:03:25;;;;;;;5.50;1.57;;;16.40;99.90;;;;;;4958620;28;20474;-70
2022/05/26 09:06:22;;;;;;;4.07;1.20;;;16.50;99.90;;;;;;4960609;28;20511;-70
2022/05/26 09:15:37;;;;;;;2.30;1.10;;;16.70;99.90;;;;;;4959944;28;20526;-70
2022/05/26 09:18:25;;;;;;;2.17;1.13;;;16.70;99.90;;;;;;4962641;28;20554;-70
2022/05/26 09:21:22;;;;;;;2.27;1.00;;;16.80;99.90;;;;;;4962210;28;20541;-68
2022/05/26 09:24:31;;;;;;;1.50;0.70;;;16.70;99.90;;;;;;4960554;28;20466;-68
2022/05/26 09:27:28;;;;;;;2.17;1.10;;;16.70;99.90;;;;;;4961231;28;20621;-69
2022/05/26 09:30:20;;;;;;;1.80;0.80;;;16.70;99.90;;;;;;4960414;28;20490;-69
2022/05/26 09:33:27;;;;;;;1.77;0.80;;;16.80;99.90;;;;;;4959846;28;20486;-69
2022/05/26 09:36:19;;;;;;;2.93;0.80;;;16.90;99.90;;;;;;4959562;28;20635;-70
2022/05/26 09:39:09;;;;;;;2.40;0.90;;;16.80;99.90;;;;;;4957048;28;20597;-70
2022/05/26 09:41:59;;;;;;;1.27;0.70;;;16.90;99.90;;;;;;4959898;28;20526;-70
2022/05/26 09:44:57;;;;;;;1.23;0.90;;;16.80;99.90;;;;;;4954786;28;20600;-70
2022/05/26 09:47:54;;;;;;;2.83;0.90;;;16.80;99.90;;;;;;4957886;28;20493;-69
2022/05/26 09:50:53;;;;;;;3.53;0.90;;;16.90;99.90;;;;;;4956462;28;20477;-69
2022/05/26 09:53:46;;;;;;;2.80;1.07;;;17.00;99.90;;;;;;4960191;28;20469;-69
2022/05/26 09:56:42;;;;;;;5.57;1.07;;;17.10;99.90;;;;;;4959168;28;20475;-69
2022/05/26 09:59:40;;;;;;;2.00;1.20;;;17.20;99.90;;;;;;4957991;28;20465;-69
2022/05/26 10:02:37;;;;;;;3.20;0.90;;;17.10;99.90;;;;;;4957821;28;20490;-69
2022/05/26 10:05:43;;;;;;;3.53;1.10;;;17.10;99.90;;;;;;4958484;28;20864;-69
2022/05/26 10:08:42;;;;;;;3.80;1.03;;;17.20;99.90;;;;;;4958823;28;20507;-69
2022/05/26 10:12:01;;;;;;;3.50;1.33;;;17.20;99.90;;;;;;4960037;28;20462;-70
2022/05/26 10:15:03;;;;;;;1.77;1.07;;;17.30;99.90;;;;;;4958467;28;20896;-70
2022/05/26 10:18:12;;;;;;;3.03;1.37;;;17.30;99.90;;;;;;4957838;28;20602;-70
2022/05/26 10:21:10;;;;;;;3.27;1.27;;;17.20;99.90;;;;;;4957477;28;20473;-70
2022/05/26 10:24:36;;;;;;;3.10;1.00;;;17.30;99.90;;;;;;4958685;28;20487;-69
2022/05/26 10:27:36;;;;;;;2.20;1.00;;;17.30;99.90;;;;;;4959588;28;20463;-70
2022/05/26 10:30:38;;;;;;;3.10;1.27;;;17.30;99.90;;;;;;4957310;28;20518;-71
2022/05/26 10:33:45;;;;;;;2.60;1.00;;;17.40;99.90;;;;;;4958578;28;20816;-70
2022/05/26 10:36:57;;;;;;;4.53;1.47;;;17.40;99.90;;;;;;4957117;28;20485;-69
2022/05/26 10:40:10;;;;;;;2.73;1.40;;;17.50;99.90;;;;;;4958101;28;20503;-69
2022/05/26 10:43:03;;;;;;;3.13;1.17;;;17.40;99.90;;;;;;4958476;28;20486;-69
2022/05/26 10:45:55;;;;;;;4.40;1.50;;;17.40;99.90;;;;;;4957505;28;20496;-69
2022/05/26 10:48:50;;;;;;;3.83;1.33;;;17.60;99.90;;;;;;4957999;28;21030;-69
2022/05/26 10:51:42;;;;;;;3.33;1.07;;;17.70;99.90;;;;;;4959671;28;20840;-69
2022/05/26 10:54:38;;;;;;;3.30;0.97;;;17.70;99.90;;;;;;4959207;28;20482;-70
2022/05/26 10:57:39;;;;;;;3.63;1.50;;;17.70;99.90;;;;;;4958367;28;20484;-69
2022/05/26 11:00:31;;;;;;;2.33;1.00;;;17.70;99.90;;;;;;4958705;28;20530;-70
2022/05/26 11:03:25;;;;;;;4.23;1.23;;;17.70;99.90;;;;;;4956762;28;20614;-69
2022/05/26 11:06:25;;;;;;;3.53;1.20;;;17.70;99.90;;;;;;4957119;28;20513;-69
2022/05/26 11:09:20;;;;;;;1.70;1.10;;;17.70;99.90;;;;;;4959627;28;21109;-69
2022/05/26 11:12:18;;;;;;;3.77;1.10;;;17.70;99.90;;;;;;4954963;28;21368;-71
2022/05/26 11:18:30;;;;;;;1.07;0.73;;;18.00;99.90;;;;;;4958020;28;20459;-74
2022/05/26 11:21:25;;;;;;;1.70;0.87;;;18.00;99.90;;;;;;4954905;28;20506;-69
2022/05/26 11:24:15;;;;;;;1.93;1.00;;;18.00;99.90;;;;;;4957221;28;20616;-70
2022/05/26 11:27:12;;;;;;;1.70;0.70;;;17.80;99.90;;;;;;4959148;28;20582;-70
2022/05/26 11:30:07;;;;;;;1.30;0.80;;;17.80;99.90;;;;;;4958897;28;20480;-70
2022/05/26 11:36:12;;;;;;;1.70;1.13;;;17.70;99.90;;;;;;4958181;28;20576;-69
2022/05/26 11:39:01;;;;;;;2.23;0.90;;;17.60;99.90;;;;;;4959383;28;20455;-69
2022/05/26 11:41:58;;;;;;;1.90;1.00;;;17.60;99.90;;;;;;4958004;28;20833;-69
2022/05/26 11:44:57;;;;;;;3.80;1.23;;;17.50;99.90;;;;;;4956594;28;20826;-69
2022/05/26 11:47:53;;;;;;;1.87;0.80;;;17.50;99.90;;;;;;4958475;28;21220;-69
2022/05/26 11:50:58;;;;;;;3.13;0.90;;;17.40;99.90;;;;;;4957834;28;20487;-69
2022/05/26 11:53:48;;;;;;;3.00;1.00;;;17.40;99.90;;;;;;4957673;28;20478;-70
2022/05/26 11:56:49;;;;;;;2.93;1.17;;;17.40;99.90;;;;;;4959181;28;20682;-69
2022/05/26 11:59:47;;;;;;;1.50;1.20;;;17.20;99.90;;;;;;4957724;28;20890;-69
2022/05/26 12:02:38;;;;;;;3.17;1.10;;;17.30;99.90;;;;;;4957116;28;20549;-69
2022/05/26 12:05:46;;;;;;;3.17;1.10;;;17.20;99.90;;;;;;4957030;28;20466;-69
2022/05/26 12:08:41;;;;;;;2.90;1.40;;;17.20;99.90;;;;;;4947096;28;20472;-69
2022/05/26 12:11:55;;;;;;;2.50;1.30;;;17.20;99.90;;;;;;4940501;28;20550;-70
2022/05/26 12:15:03;;;;;;;2.47;1.17;;;17.20;99.90;;;;;;4941325;28;20847;-70
2022/05/26 12:17:56;;;;;;;2.30;1.10;;;17.10;99.90;;;;;;4939827;28;20490;-69
2022/05/26 12:20:47;;;;;;;2.30;1.00;;;17.20;99.90;;;;;;4944784;28;20451;-69
2022/05/26 12:23:38;;;;;;;3.20;1.17;;;17.20;99.90;;;;;;4942314;28;20471;-69
2022/05/26 12:26:47;;;;;;;3.33;1.27;;;17.10;99.90;;;;;;4942679;28;20585;-69
2022/05/26 12:30:01;;;;;;;2.07;1.23;;;17.00;99.90;;;;;;4943634;28;20553;-70
2022/05/26 12:32:56;;;;;;;3.70;1.30;;;17.00;99.90;;;;;;4942462;28;20876;-69
2022/05/26 12:35:54;;;;;;;3.17;1.40;;;17.00;99.90;;;;;;4942213;28;21046;-69
2022/05/26 12:38:59;;;;;;;3.00;1.20;;;17.00;99.90;;;;;;4941716;28;20584;-69
2022/05/26 12:41:58;;;;;;;1.57;1.10;;;16.90;99.90;;;;;;4942596;28;20574;-69
2022/05/26 12:45:19;;;;;;;3.60;1.43;;;16.80;99.90;;;;;;4942463;28;20464;-69
2022/05/26 12:48:33;;;;;;;4.27;1.60;;;16.80;99.90;;;;;;4941651;28;20518;-70
2022/05/26 12:51:23;;;;;;;2.40;1.10;;;16.80;99.90;;;;;;4942457;28;20576;-70
2022/05/26 12:54:19;;;;;;;5.90;1.50;;;16.90;99.90;;;;;;4942797;28;20581;-70
2022/05/26 12:57:10;;;;;;;3.90;1.30;;;16.90;99.90;;;;;;4943615;28;20467;-69
2022/05/26 13:00:32;;;;;;;3.57;1.20;;;16.90;99.90;;;;;;4943320;28;20471;-70
2022/05/26 13:03:28;;;;;;;10.33;1.30;;;17.00;99.90;;;;;;4882370;29;20542;-70
2022/05/26 13:06:28;;;;;;;3.17;1.20;;;17.10;99.90;;;;;;4941358;28;20479;-69
2022/05/26 13:09:20;;;;;;;2.50;1.10;;;17.10;99.90;;;;;;4958716;28;20470;-69
2022/05/26 13:12:09;;;;;;;2.40;1.50;;;17.10;99.90;;;;;;4959469;28;20473;-69
2022/05/26 13:14:59;;;;;;;4.10;1.47;;;17.10;99.90;;;;;;4959873;28;20597;-69
2022/05/26 13:17:48;;;;;;;3.13;1.40;;;17.10;99.90;;;;;;4958416;28;21049;-70
2022/05/26 13:20:36;;;;;;;3.00;1.43;;;17.00;99.90;;;;;;4959188;28;20458;-70
2022/05/26 13:23:44;;;;;;;4.20;1.53;;;16.90;99.90;;;;;;4959861;28;20479;-70
2022/05/26 13:26:35;;;;;;;2.50;1.10;;;16.90;99.90;;;;;;4957323;28;20971;-69
2022/05/26 13:29:23;;;;;;;3.30;1.27;;;16.90;99.90;;;;;;4961084;28;20881;-70
2022/05/26 13:35:27;;;;;;;1.93;1.10;;;16.90;99.90;;;;;;4960615;28;20457;-69
2022/05/26 13:38:32;;;;;;;2.47;1.23;;;16.90;99.90;;;;;;4959255;28;20980;-70
2022/05/26 13:41:26;;;;;;;2.23;1.23;;;16.90;99.90;;;;;;4960055;28;20512;-69
2022/05/26 13:44:19;;;;;;;1.50;1.00;;;16.90;99.90;;;;;;4959450;28;20482;-70
2022/05/26 13:47:13;;;;;;;3.00;1.20;;;16.90;99.90;;;;;;4960177;28;20587;-70
2022/05/26 13:50:04;;;;;;;1.60;1.00;;;17.00;99.90;;;;;;4959402;28;20540;-70
2022/05/26 13:52:52;;;;;;;4.43;1.30;;;16.90;99.90;;;;;;4960347;28;20474;-69
2022/05/26 13:55:45;;;;;;;2.73;1.10;;;17.00;99.90;;;;;;4958375;28;20475;-70
2022/05/26 13:58:41;;;;;;;2.23;1.07;;;16.90;99.90;;;;;;4961370;28;20542;-70
2022/05/26 14:01:31;;;;;;;2.27;1.13;;;16.90;99.90;;;;;;4959554;28;20483;-70
2022/05/26 14:04:34;;;;;;;2.07;1.40;;;17.00;99.90;;;;;;4958006;28;20488;-69
2022/05/26 14:07:34;;;;;;;3.50;1.67;;;17.00;99.90;;;;;;4958894;28;20535;-69
2022/05/26 14:10:29;;;;;;;2.87;1.50;;;17.00;99.90;;;;;;4961014;28;20469;-69
2022/05/26 14:13:31;;;;;;;3.00;1.63;;;16.90;99.90;;;;;;4957436;28;20478;-70
2022/05/26 14:16:26;;;;;;;3.53;1.40;;;17.00;99.90;;;;;;4959451;28;20574;-69
2022/05/26 14:19:24;;;;;;;4.20;2.10;;;16.90;99.90;;;;;;4959429;28;20450;-69
2022/05/26 14:22:13;;;;;;;1.80;1.43;;;16.90;99.90;;;;;;4960088;28;20482;-71
2022/05/26 14:25:01;;;;;;;3.93;1.60;;;16.90;99.90;;;;;;4958217;28;20967;-69
2022/05/26 14:27:55;;;;;;;2.70;1.40;;;16.80;99.90;;;;;;4958476;28;20489;-69
2022/05/26 14:30:52;;;;;;;4.13;1.83;;;16.80;99.90;;;;;;4958060;28;20981;-71
2022/05/26 14:33:59;;;;;;;2.73;1.53;;;16.70;99.90;;;;;;4960466;28;20480;-69
2022/05/26 14:36:53;;;;;;;2.90;1.30;;;16.70;99.90;;;;;;4958862;28;20474;-69
2022/05/26 14:39:42;;;;;;;4.73;2.00;;;16.70;99.90;;;;;;4957361;28;20466;-70
2022/05/26 14:42:39;;;;;;;2.63;1.20;;;16.70;99.90;;;;;;4956788;28;20481;-69
2022/05/26 14:45:29;;;;;;;6.03;1.80;;;16.60;99.90;;;;;;4959392;28;20514;-69
2022/05/26 14:48:17;;;;;;;2.87;1.70;;;16.60;99.90;;;;;;4959662;28;20593;-69
2022/05/26 14:51:10;;;;;;;2.60;1.60;;;16.50;99.90;;;;;;4957806;28;20446;-69
2022/05/26 14:57:10;;;;;;;2.20;1.47;;;16.50;99.90;;;;;;4959389;28;20529;-70
2022/05/26 14:59:58;;;;;;;3.67;1.40;;;16.50;99.90;;;;;;4959623;28;20546;-70
2022/05/26 15:02:47;;;;;;;2.93;1.50;;;16.40;99.90;;;;;;4957155;28;20483;-69
2022/05/26 15:05:39;;;;;;;4.20;1.70;;;16.40;99.90;;;;;;4956509;28;20459;-69
2022/05/26 15:08:33;;;;;;;4.07;1.43;;;16.40;99.90;;;;;;4959014;28;20505;-70
2022/05/26 15:11:22;;;;;;;6.27;2.37;;;16.40;99.90;;;;;;4957800;28;20550;-70
2022/05/26 15:14:10;;;;;;;4.90;1.30;;;16.40;99.90;;;;;;4955797;28;20635;-69
2022/05/26 15:17:07;;;;;;;3.60;1.70;;;16.30;99.90;;;;;;4958185;28;20475;-69
2022/05/26 15:20:00;;;;;;;4.73;1.70;;;16.40;99.90;;;;;;4958849;28;20451;-69
2022/05/26 15:22:52;;;;;;;3.37;1.70;;;16.30;99.90;;;;;;4959138;28;20470;-70
2022/05/26 15:26:07;;;;;;;4.63;1.73;;;16.30;99.90;;;;;;4958828;28;20463;-70
2022/05/26 15:28:53;;;;;;;3.27;1.77;;;16.20;99.90;;;;;;4959314;28;20467;-69
2022/05/26 15:31:44;;;;;;;2.60;1.80;;;16.00;99.90;;;;;;4958504;28;20525;-70
2022/05/26 15:34:32;;;;;;;4.03;1.43;;;15.60;99.90;;;;;;4958732;28;20571;-69
2022/05/26 15:37:22;;;;;;;3.97;1.63;;;15.50;99.90;;;;;;4955782;28;20482;-69
2022/05/26 15:40:11;;;;;;;5.13;1.90;;;15.40;99.90;;;;;;4958007;28;20459;-69
2022/05/26 15:42:59;;;;;;;5.10;2.70;;;15.30;99.90;;;;;;4957474;28;20479;-69
2022/05/26 15:45:53;;;;;;;3.07;1.83;;;15.20;99.90;;;;;;4958916;28;20478;-69
2022/05/26 15:48:43;;;;;;;4.30;2.70;;;15.20;99.90;;;;;;4958157;28;20526;-69
2022/05/26 15:51:31;;;;;;;5.40;2.40;;;15.10;99.90;;;;;;4962088;28;20977;-69
2022/05/26 15:54:23;;;;;;;3.70;1.97;;;15.00;99.90;;;;;;4962570;28;20515;-70
2022/05/26 15:57:12;;;;;;;2.83;2.00;;;15.00;99.90;;;;;;4960772;28;20957;-69
2022/05/26 16:00:03;;;;;;;4.57;2.37;;;15.00;99.90;;;;;;4962850;28;20501;-69
2022/05/26 16:02:54;;;;;;;2.87;1.70;;;15.00;99.90;;;;;;4962957;28;20478;-69
2022/05/26 16:05:43;;;;;;;3.10;2.03;;;15.00;99.90;;;;;;4962479;28;20561;-68
2022/05/26 16:08:31;;;;;;;3.03;2.50;;;15.00;99.90;;;;;;4963434;28;20545;-69
2022/05/26 16:11:26;;;;;;;6.00;2.53;;;15.00;99.90;;;;;;4961043;28;20597;-68
2022/05/26 16:14:19;;;;;;;4.60;2.07;;;14.90;99.90;;;;;;4960418;28;20506;-69
2022/05/26 16:17:07;;;;;;;4.63;2.63;;;15.00;99.90;;;;;;4963534;28;21005;-69
2022/05/26 16:19:57;;;;;;;3.97;2.50;;;14.90;99.90;;;;;;4964575;28;20450;-69
2022/05/26 16:22:48;;;;;;;7.17;3.90;;;14.90;99.90;;;;;;4961604;28;20471;-69
2022/05/26 16:25:37;;;;;;;3.97;2.00;;;14.80;99.90;;;;;;4962737;28;20569;-69
2022/05/26 16:28:26;;;;;;;4.53;2.67;;;14.80;99.90;;;;;;4963004;28;20558;-69
2022/05/26 16:31:15;;;;;;;4.33;2.17;;;14.70;99.90;;;;;;4961541;28;20459;-69
2022/05/26 16:34:03;;;;;;;7.00;2.47;;;14.60;99.90;;;;;;4958478;28;20568;-68
2022/05/26 16:36:53;;;;;;;4.97;2.40;;;14.60;99.90;;;;;;4962414;28;20503;-68
2022/05/26 16:39:46;;;;;;;4.57;2.60;;;14.70;99.90;;;;;;4962206;28;20450;-69
2022/05/26 16:42:34;;;;;;;5.03;3.13;;;14.60;99.90;;;;;;4955995;28;20956;-69
2022/05/26 16:45:24;;;;;;;6.80;2.83;;;14.60;99.90;;;;;;4961713;28;20482;-68
2022/05/26 16:48:14;;;;;;;6.80;2.70;;;14.40;99.90;;;;;;4962381;28;20536;-69
2022/05/26 16:51:04;;;;;;;5.20;3.50;;;14.40;99.90;;;;;;4960293;28;20501;-69
2022/05/26 16:53:53;;;;;;;6.33;3.40;;;14.50;99.90;;;;;;4961742;28;20618;-68
2022/05/26 16:56:41;;;;;;;5.37;3.40;;;14.50;99.90;;;;;;4958966;28;20985;-69
2022/05/26 16:59:31;;;;;;;4.20;2.50;;;14.50;99.90;;;;;;4961131;28;20991;-68
2022/05/26 17:02:23;;;;;;;4.10;2.83;;;14.40;99.90;;;;;;4959853;28;20482;-68
2022/05/26 17:05:11;;;;;;;3.57;2.53;;;14.30;99.90;;;;;;4962559;28;20459;-68
2022/05/26 17:08:00;;;;;;;4.40;2.23;;;14.30;99.90;;;;;;4961223;28;20467;-69
2022/05/26 17:10:52;;;;;;;4.93;2.83;;;14.40;99.90;;;;;;4962573;28;20491;-70
2022/05/26 17:23:09;;;;;;;6.50;2.27;;;14.10;99.90;;;;;;4961697;28;20471;-69
2022/05/26 17:26:02;;;;;;;6.27;2.80;;;14.00;99.90;;;;;;4962335;28;20564;-69
2022/05/26 17:28:50;;;;;;;4.33;2.67;;;14.10;99.90;;;;;;4962112;28;20478;-71
2022/05/26 17:31:39;;;;;;;3.90;2.50;;;14.00;99.90;;;;;;4959636;28;21012;-69
2022/05/26 17:34:30;;;;;;;4.30;2.30;;;14.00;99.90;;;;;;4960330;28;20978;-69
2022/05/26 17:37:22;;;;;;;5.40;2.90;;;14.00;99.90;;;;;;4959655;28;20493;-68
2022/05/26 17:40:12;;;;;;;5.40;2.90;;;13.90;99.90;;;;;;4962244;28;20525;-69
2022/05/26 17:43:03;;;;;;;5.73;3.00;;;13.90;99.90;;;;;;4960336;28;20478;-69
2022/05/26 17:45:54;;;;;;;6.50;3.20;;;13.90;99.90;;;;;;4961372;28;20490;-69
2022/05/26 17:48:42;;;;;;;3.10;2.80;;;13.80;99.90;;;;;;4962317;28;20553;-69
2022/05/26 17:51:36;;;;;;;4.63;2.63;;;13.90;99.90;;;;;;4961407;28;20582;-69
2022/05/26 17:54:32;;;;;;;4.90;3.03;;;13.90;99.90;;;;;;4962018;28;20475;-69
2022/05/26 17:57:20;;;;;;;4.93;2.90;;;13.90;99.90;;;;;;4960273;28;21068;-69
2022/05/26 18:03:19;;;;;;;5.20;3.30;;;13.90;99.90;;;;;;4956681;28;20837;-69
2022/05/26 18:06:11;;;;;;;5.20;3.40;;;13.80;99.90;;;;;;4959569;28;20482;-69
2022/05/26 18:08:59;;;;;;;8.50;3.43;;;13.70;99.90;;;;;;4961419;28;20495;-69
2022/05/26 18:11:47;;;;;;;4.20;3.23;;;13.70;99.90;;;;;;4959964;28;20483;-69
2022/05/26 18:14:37;;;;;;;5.17;3.80;;;13.70;99.90;;;;;;4957418;28;20996;-69
2022/05/26 18:17:32;;;;;;;5.60;3.13;;;13.60;99.90;;;;;;4959524;28;20606;-69
2022/05/26 18:20:23;;;;;;;4.70;3.40;;;13.60;99.90;;;;;;4961567;28;20451;-69
2022/05/26 18:23:19;;;;;;;4.60;3.47;;;13.70;99.90;;;;;;4956234;28;20484;-69
2022/05/26 18:26:08;;;;;;;5.43;3.20;;;13.60;99.90;;;;;;4961949;28;20948;-69
2022/05/26 18:29:09;;;;;;;5.60;3.23;;;13.60;99.90;;;;;;4961094;28;20478;-69
2022/05/26 18:32:03;;;;;;;3.03;2.73;;;13.50;99.90;;;;;;4961007;28;21017;-69
2022/05/26 18:35:02;;;;;;;6.10;2.87;;;13.50;99.90;;;;;;4959985;28;20465;-69
2022/05/26 18:37:56;;;;;;;4.70;2.70;;;13.60;99.90;;;;;;4961404;28;20959;-69
2022/05/26 18:40:49;;;;;;;4.13;2.90;;;13.50;99.90;;;;;;4961072;28;20542;-69
2022/05/26 18:43:37;;;;;;;3.67;2.70;;;13.50;99.90;;;;;;4960518;28;20829;-68
2022/05/26 18:46:25;;;;;;;2.43;2.23;;;13.30;99.90;;;;;;4959332;28;20486;-68
2022/05/26 18:49:21;;;;;;;4.03;2.30;;;13.20;99.90;;;;;;4954907;28;20482;-69
2022/05/26 18:52:10;;;;;;;2.90;2.60;;;13.30;99.90;;;;;;4959299;28;20816;-69
2022/05/26 18:55:08;;;;;;;4.20;2.80;;;13.30;99.90;;;;;;4961561;28;20540;-68
2022/05/26 18:58:00;;;;;;;5.03;2.53;;;13.30;99.90;;;;;;4955944;28;20969;-69
2022/05/26 19:00:56;;;;;;;2.43;2.23;;;13.20;99.90;;;;;;4960429;28;20451;-69
2022/05/26 19:04:07;;;;;;;3.23;2.80;;;13.30;99.90;;;;;;4957963;28;20467;-68
2022/05/26 19:06:57;;;;;;;4.50;2.70;;;13.30;99.90;;;;;;4959572;28;20491;-68
2022/05/26 19:09:49;;;;;;;2.47;2.27;;;13.20;99.90;;;;;;4960597;28;20865;-69
2022/05/26 19:12:40;;;;;;;3.53;3.20;;;13.30;99.90;;;;;;4959180;28;20911;-69
2022/05/26 19:15:35;;;;;;;3.00;2.73;;;13.30;99.90;;;;;;4956475;28;20596;-69
2022/05/26 19:18:24;;;;;;;4.20;2.80;;;13.30;99.90;;;;;;4959744;28;20479;-69
2022/05/26 19:21:13;;;;;;;4.43;2.80;;;13.30;99.90;;;;;;4959869;28;20447;-69
2022/05/26 19:24:01;;;;;;;3.00;2.43;;;13.30;99.90;;;;;;4956578;28;20572;-68
2022/05/26 19:26:57;;;;;;;3.80;3.00;;;13.30;99.90;;;;;;4958178;28;20812;-67
2022/05/26 19:29:50;;;;;;;2.80;2.60;;;13.30;99.90;;;;;;4960260;28;21058;-67
2022/05/26 19:32:39;;;;;;;3.53;2.93;;;13.30;99.90;;;;;;4958547;28;20474;-69
2022/05/26 19:35:27;;;;;;;3.03;2.53;;;13.30;99.90;;;;;;4958286;28;20613;-68
2022/05/26 19:38:22;;;;;;;3.00;2.70;;;13.30;99.90;;;;;;4956170;28;20459;-68
2022/05/26 19:41:15;;;;;;;4.10;2.53;;;13.20;99.90;;;;;;4959946;28;20455;-68
2022/05/26 19:44:14;;;;;;;3.70;2.60;;;13.30;99.90;;;;;;4958565;28;20498;-67
2022/05/26 19:47:03;;;;;;;3.07;2.87;;;13.30;99.90;;;;;;4959221;28;20537;-67
2022/05/26 19:49:54;;;;;;;5.07;3.17;;;13.30;99.90;;;;;;4959756;28;20470;-67
2022/05/26 19:52:45;;;;;;;4.73;3.03;;;13.30;99.90;;;;;;4959197;28;20565;-67
2022/05/26 19:55:33;;;;;;;5.40;3.00;;;13.30;99.90;;;;;;4957030;28;20489;-67
2022/05/26 19:58:28;;;;;;;3.20;3.00;;;13.30;99.90;;;;;;4959775;28;20585;-67
2022/05/26 20:01:20;;;;;;;3.27;2.60;;;13.30;99.90;;;;;;4958536;28;20537;-70
2022/05/26 20:04:16;;;;;;;3.67;2.90;;;13.30;99.90;;;;;;4955157;28;20661;-68
2022/05/26 20:07:05;;;;;;;4.33;3.80;;;13.30;99.90;;;;;;4957702;28;20467;-67
2022/05/26 20:09:53;;;;;;;3.37;2.80;;;13.30;99.90;;;;;;4940252;28;20825;-67
2022/05/26 20:12:45;;;;;;;4.67;3.20;;;13.30;99.90;;;;;;4936048;28;20476;-67
2022/05/26 20:15:34;;;;;;;3.50;3.20;;;13.30;99.90;;;;;;4938895;28;20455;-67
2022/05/26 20:18:25;;;;;;;3.80;3.40;;;13.40;99.90;;;;;;4938572;28;21044;-68
2022/05/26 20:21:16;;;;;;;4.43;3.93;;;13.40;99.90;;;;;;4939690;28;20824;-67
2022/05/26 20:24:06;;;;;;;4.40;3.80;;;13.40;99.90;;;;;;4937752;28;20563;-68
2022/05/26 20:26:57;;;;;;;5.83;4.13;;;13.40;99.90;;;;;;4940469;28;21004;-68
2022/05/26 20:29:45;;;;;;;4.97;4.57;;;13.40;99.90;;;;;;4939208;28;20484;-68
2022/05/26 20:32:36;;;;;;;4.70;4.03;;;13.40;99.90;;;;;;4937655;28;21046;-68
2022/05/26 20:35:31;;;;;;;5.33;3.87;;;13.40;99.90;;;;;;4943529;28;20443;-67
2022/05/26 20:38:27;;;;;;;4.67;4.27;;;13.40;99.90;;;;;;4942352;28;20820;-68
2022/05/26 20:41:15;;;;;;;5.27;4.73;;;13.40;99.90;;;;;;4940642;28;20547;-68
2022/05/26 20:44:04;;;;;;;4.90;4.50;;;13.40;99.90;;;;;;4940626;28;20903;-68
2022/05/26 20:46:54;;;;;;;5.20;4.70;;;13.40;99.90;;;;;;4944235;28;20577;-68
2022/05/26 20:49:45;;;;;;;6.07;4.40;;;13.40;99.90;;;;;;4944359;28;20456;-68
2022/05/26 20:52:37;;;;;;;5.97;5.00;;;13.40;99.90;;;;;;4942104;28;20537;-68
2022/05/26 20:55:31;;;;;;;5.70;4.60;;;13.40;99.90;;;;;;4943472;28;20707;-67
2022/05/26 20:58:24;;;;;;;5.37;4.87;;;13.40;99.90;;;;;;4941290;28;20549;-67
2022/05/26 21:01:17;;;;;;;6.13;5.37;;;13.40;99.90;;;;;;4938448;28;20834;-67
2022/05/26 21:04:06;;;;;;;6.97;5.40;;;13.40;99.90;;;;;;4939934;28;22060;-67
2022/05/26 21:06:55;;;;;;;5.60;5.10;;;13.40;99.90;;;;;;4945755;28;20561;-68
2022/05/26 21:09:49;;;;;;;5.93;5.43;;;13.40;99.90;;;;;;4944286;28;20922;-67
2022/05/26 21:12:45;;;;;;;7.33;5.93;;;13.40;99.90;;;;;;4941917;28;20480;-68
2022/05/26 21:15:33;;;;;;;7.67;6.97;;;13.40;99.90;;;;;;4944127;28;20490;-68
2022/05/26 21:18:26;;;;;;;6.43;5.90;;;13.40;99.90;;;;;;4950963;28;20463;-68
2022/05/26 21:21:16;;;;;;;8.17;6.67;;;13.40;99.90;;;;;;4950911;28;20579;-68
2022/05/26 21:24:08;;;;;;;7.60;6.90;;;13.40;99.90;;;;;;4941697;28;20526;-68
2022/05/26 21:27:01;;;;;;;7.30;6.60;;;13.40;99.90;;;;;;4942014;28;20571;-68
2022/05/26 21:29:56;;;;;;;7.67;6.47;;;13.40;99.90;;;;;;4943393;28;20543;-68
2022/05/26 21:32:44;;;;;;;8.10;7.27;;;13.30;99.90;;;;;;4942338;28;21114;-68
2022/05/26 21:35:33;;;;;;;7.53;6.83;;;13.40;99.90;;;;;;4941128;28;20845;-68
2022/05/26 21:38:21;;;;;;;7.73;7.00;;;13.40;99.90;;;;;;4943774;28;20614;-68
2022/05/26 21:41:10;;;;;;;8.30;7.43;;;13.40;99.90;;;;;;4943331;28;20945;-68
2022/05/26 21:44:02;;;;;;;8.50;7.70;;;13.40;99.90;;;;;;4942807;28;20479;-68
2022/05/26 21:46:53;;;;;;;10.57;7.93;;;13.40;99.90;;;;;;4940912;28;20571;-67
2022/05/26 21:49:45;;;;;;;11.40;7.27;;;13.40;99.90;;;;;;4942313;28;20543;-68
2022/05/26 21:52:35;;;;;;;11.40;8.67;;;13.40;99.90;;;;;;4941768;28;20489;-68